Time;durP1;ratioP1;P1;durP2;ratioP2;P2;SDS_P1;SDS_P2;PMS_P1;PMS_P2;Temp;Humidity;BMP_temperature;BMP_pressure;BME280_temperature;BME280_humidity;BME280_pressure;Samples;Min_cycle;Max_cycle;Signal;HPM_P1;HPM_P2
2022/05/08 00:01:10;;;;;;;26.73;16.88;;;;;;;13.77;87.70;96732.03;5106901;28;20554;-77
2022/05/08 00:03:38;;;;;;;34.03;17.30;;;;;;;13.73;87.81;96736.59;5107374;28;20051;-77
2022/05/08 00:06:10;;;;;;;20.63;12.07;;;;;;;13.73;87.77;96733.84;5105780;28;20047;-74
2022/05/08 00:08:37;;;;;;;20.77;12.57;;;;;;;13.71;87.96;96733.38;5107447;28;20146;-74
2022/05/08 00:11:03;;;;;;;25.85;12.95;;;;;;;13.71;88.13;96732.56;5106296;28;20614;-77
2022/05/08 00:13:31;;;;;;;40.00;13.63;;;;;;;13.70;88.16;96729.03;5106905;28;20522;-79
2022/05/08 00:15:58;;;;;;;55.92;22.73;;;;;;;13.68;88.23;96725.81;5105775;28;20052;-75
2022/05/08 00:18:24;;;;;;;75.60;25.60;;;;;;;13.69;88.42;96729.38;5106367;28;20054;-75
2022/05/08 00:20:52;;;;;;;23.90;12.85;;;;;;;13.68;88.33;96728.56;5107093;28;20054;-76
2022/05/08 00:23:19;;;;;;;27.43;13.87;;;;;;;13.68;88.50;96728.56;5105925;28;20058;-75
2022/05/08 00:25:45;;;;;;;72.07;24.92;;;;;;;13.69;88.63;96723.91;5106362;28;20059;-75
2022/05/08 00:28:12;;;;;;;43.92;18.38;;;;;;;13.70;88.47;96725.50;5105717;28;20047;-75
2022/05/08 00:30:38;;;;;;;37.30;23.70;;;;;;;13.68;88.71;96728.56;5107271;28;20048;-75
2022/05/08 00:33:05;;;;;;;38.05;17.98;;;;;;;13.67;88.71;96723.41;5105666;28;20054;-75
2022/05/08 00:35:32;;;;;;;160.50;47.70;;;;;;;13.67;88.95;96721.47;5107044;28;20043;-76
2022/05/08 00:38:00;;;;;;;30.75;14.77;;;;;;;13.68;88.91;96723.09;5106102;28;20052;-75
2022/05/08 00:40:26;;;;;;;29.95;15.90;;;;;;;13.66;88.57;96714.38;5106036;28;20050;-76
2022/05/08 00:42:53;;;;;;;28.17;16.13;;;;;;;13.66;88.42;96711.66;5106286;28;20088;-74
2022/05/08 00:45:19;;;;;;;28.08;14.95;;;;;;;13.65;88.42;96718.25;5105048;28;20129;-74
2022/05/08 00:47:46;;;;;;;27.25;13.52;;;;;;;13.63;88.46;96715.06;5106431;28;20059;-75
2022/05/08 00:50:13;;;;;;;26.33;14.05;;;;;;;13.64;88.55;96716.66;5105628;28;20327;-75
2022/05/08 00:52:39;;;;;;;22.00;10.77;;;;;;;13.64;88.64;96711.19;5106595;28;20048;-75
2022/05/08 00:55:08;;;;;;;32.95;18.73;;;;;;;13.66;88.74;96714.38;5104850;28;20047;-76
2022/05/08 00:57:35;;;;;;;21.17;12.00;;;;;;;13.66;88.61;96706.19;5106217;28;20491;-75
2022/05/08 01:00:04;;;;;;;17.60;9.70;;;;;;;13.66;88.71;96708.91;5105116;28;20054;-75
2022/05/08 01:02:31;;;;;;;38.13;20.15;;;;;;;13.66;88.71;96706.19;5106363;28;20050;-75
2022/05/08 01:04:57;;;;;;;27.73;12.70;;;;;;;13.66;89.04;96708.13;5105694;28;20048;-75
2022/05/08 01:07:25;;;;;;;27.23;11.73;;;;;;;13.68;88.83;96703.94;5105489;28;20054;-76
2022/05/08 01:09:54;;;;;;;23.48;11.00;;;;;;;13.67;88.76;96707.78;5105769;28;20043;-75
2022/05/08 01:12:23;;;;;;;22.70;12.73;;;;;;;13.65;89.04;96701.03;5105060;28;20047;-75
2022/05/08 01:15:11;;;;;;;21.63;12.85;;;;;;;13.66;89.09;96703.44;5105516;28;20438;-75
2022/05/08 01:17:38;;;;;;;25.15;11.63;;;;;;;13.64;88.92;96705.72;5104787;28;20569;-77
2022/05/08 01:20:05;;;;;;;23.90;11.85;;;;;;;13.62;89.08;96699.75;5105907;28;20082;-74
2022/05/08 01:22:33;;;;;;;24.38;12.40;;;;;;;13.64;89.26;96700.25;5104815;28;20044;-75
2022/05/08 01:25:01;;;;;;;26.63;12.50;;;;;;;13.63;89.07;96697.84;5105840;28;20051;-75
2022/05/08 01:27:27;;;;;;;26.13;11.93;;;;;;;13.60;89.11;96696.56;5104753;28;20044;-76
2022/05/08 01:29:54;;;;;;;27.17;14.43;;;;;;;13.58;89.00;96707.84;5105416;28;20476;-75
2022/05/08 01:32:20;;;;;;;25.90;12.98;;;;;;;13.60;89.02;96699.28;5105409;28;20054;-74
2022/05/08 01:34:47;;;;;;;28.77;12.60;;;;;;;13.61;89.13;96703.63;5105334;28;20461;-75
2022/05/08 01:37:13;;;;;;;24.00;12.68;;;;;;;13.61;88.90;96700.88;5105107;28;20454;-78
2022/05/08 01:39:41;;;;;;;26.30;12.45;;;;;;;13.61;88.91;96698.16;5104529;28;20576;-74
2022/05/08 01:42:09;;;;;;;24.25;11.68;;;;;;;13.60;88.86;96702.03;5105385;28;20058;-75
2022/05/08 01:44:35;;;;;;;20.15;9.38;;;;;;;13.60;89.18;96702.03;5104561;28;20047;-75
2022/05/08 01:49:42;;;;;;;22.75;12.73;;;;;;;13.57;89.29;96706.25;5104525;28;20043;-77
2022/05/08 01:52:09;;;;;;;23.92;12.05;;;;;;;13.59;89.44;96700.44;5104992;28;20054;-77
2022/05/08 01:54:36;;;;;;;23.30;10.52;;;;;;;13.58;89.57;96696.91;5105437;28;20047;-76
2022/05/08 01:57:04;;;;;;;28.42;15.15;;;;;;;13.62;89.47;96707.16;5104419;28;20047;-76
2022/05/08 01:59:30;;;;;;;26.33;12.18;;;;;;;13.62;89.37;96707.16;5105457;28;20058;-76
2022/05/08 02:01:57;;;;;;;25.45;10.70;;;;;;;13.61;89.42;96703.63;5104855;28;20054;-74
2022/05/08 02:04:24;;;;;;;27.02;12.50;;;;;;;13.56;89.55;96714.75;5105372;28;20043;-77
2022/05/08 02:06:51;;;;;;;25.42;11.52;;;;;;;13.55;89.56;96707.69;5104886;28;20047;-74
2022/05/08 02:09:18;;;;;;;31.00;15.88;;;;;;;13.54;89.57;96717.81;5104928;28;20048;-77
2022/05/08 02:11:45;;;;;;;22.52;10.98;;;;;;;13.56;89.44;96712.03;5104607;28;20040;-74
2022/05/08 02:14:13;;;;;;;28.92;12.32;;;;;;;13.56;89.45;96709.28;5105153;28;20483;-77
2022/05/08 02:16:39;;;;;;;19.40;10.73;;;;;;;13.57;89.64;96710.88;5125759;28;20054;-75
2022/05/08 02:19:06;;;;;;;25.13;11.82;;;;;;;13.57;89.49;96710.88;5125118;28;20052;-76
2022/05/08 02:21:32;;;;;;;20.17;10.02;;;;;;;13.55;89.67;96713.16;5126131;28;20043;-74
2022/05/08 02:23:58;;;;;;;31.52;15.32;;;;;;;13.51;89.83;96714.94;5125273;28;20521;-74
2022/05/08 02:26:25;;;;;;;21.45;10.35;;;;;;;13.54;89.55;96722.50;5125302;28;20570;-75
2022/05/08 02:28:51;;;;;;;18.48;9.25;;;;;;;13.52;89.65;96713.78;5124872;28;20039;-75
2022/05/08 02:31:19;;;;;;;28.08;12.60;;;;;;;13.52;89.82;96709.16;5125347;28;20054;-75
2022/05/08 02:33:46;;;;;;;26.38;12.50;;;;;;;13.53;89.84;96710.75;5125136;28;20509;-75
2022/05/08 02:36:13;;;;;;;26.63;14.55;;;;;;;13.55;89.25;96707.69;5124800;28;20055;-75
2022/05/08 02:38:40;;;;;;;24.65;11.38;;;;;;;13.51;89.30;96710.25;5125355;28;20112;-75
2022/05/08 02:41:06;;;;;;;28.50;14.80;;;;;;;13.52;89.70;96709.16;5124778;28;20584;-75
2022/05/08 02:43:33;;;;;;;26.17;12.13;;;;;;;13.52;89.57;96709.16;5125542;28;20616;-75
2022/05/08 02:46:02;;;;;;;22.88;10.75;;;;;;;13.52;89.63;96700.94;5124102;28;20082;-75
2022/05/08 02:48:30;;;;;;;18.35;9.02;;;;;;;13.52;89.75;96702.84;5126101;28;20142;-76
2022/05/08 02:50:56;;;;;;;21.95;12.40;;;;;;;13.50;89.67;96697.72;5126342;27;20051;-76
2022/05/08 02:53:23;;;;;;;23.90;13.45;;;;;;;13.52;89.89;96700.13;5129498;27;20043;-75
2022/05/08 02:58:33;;;;;;;24.70;12.52;;;;;;;13.56;89.46;96704.59;5129154;27;20058;-74
2022/05/08 03:01:01;;;;;;;21.58;11.43;;;;;;;13.53;89.49;96704.47;5129189;27;20051;-75
2022/05/08 03:03:28;;;;;;;26.98;15.45;;;;;;;13.49;89.42;96706.25;5128444;27;20046;-74
2022/05/08 03:05:55;;;;;;;23.02;12.32;;;;;;;13.46;89.78;96709.63;5128831;27;20058;-75
2022/05/08 03:08:22;;;;;;;24.27;13.77;;;;;;;13.48;89.84;96712.88;5127434;27;20050;-76
2022/05/08 03:13:35;;;;;;;19.00;11.75;;;;;;;13.43;89.88;96710.31;5127906;27;20058;-76
2022/05/08 03:16:02;;;;;;;21.08;12.13;;;;;;;13.40;89.88;96705.50;5108643;27;20646;-76
2022/05/08 03:18:28;;;;;;;17.15;10.63;;;;;;;13.41;90.15;96705.16;5107260;28;20043;-76
2022/05/08 03:20:56;;;;;;;21.65;11.52;;;;;;;13.42;90.18;96703.25;5108562;28;20055;-77
2022/05/08 03:23:23;;;;;;;20.58;12.00;;;;;;;13.42;89.86;96703.25;5107884;28;20629;-76
2022/05/08 03:25:49;;;;;;;29.92;13.13;;;;;;;13.41;90.18;96701.63;5107618;28;20067;-76
2022/05/08 03:28:16;;;;;;;20.60;11.98;;;;;;;13.43;90.14;96713.06;5107503;28;20258;-75
2022/05/08 03:30:43;;;;;;;24.33;14.45;;;;;;;13.44;89.81;96706.44;5108492;28;20054;-76
2022/05/08 03:33:10;;;;;;;33.38;16.08;;;;;;;13.47;89.91;96705.81;5107747;28;20047;-76
2022/05/08 03:35:37;;;;;;;32.63;17.00;;;;;;;13.45;89.71;96710.78;5106984;28;20421;-75
2022/05/08 03:38:06;;;;;;;27.58;13.38;;;;;;;13.45;89.83;96710.78;5107467;28;20134;-75
2022/05/08 03:40:33;;;;;;;64.18;22.10;;;;;;;13.46;89.97;96709.63;5107133;28;20116;-76
2022/05/08 03:43:00;;;;;;;22.35;11.02;;;;;;;13.48;90.12;96707.41;5104190;28;20031;-75
2022/05/08 03:45:27;;;;;;;19.35;11.55;;;;;;;13.48;89.63;96708.19;5107032;28;20130;-75
2022/05/08 03:47:54;;;;;;;27.83;14.73;;;;;;;13.47;89.63;96712.06;5107478;28;20043;-76
2022/05/08 03:50:21;;;;;;;26.25;12.77;;;;;;;13.47;89.38;96714.00;5107099;28;20047;-75
2022/05/08 03:52:48;;;;;;;;;;;;;;;13.49;89.71;96715.28;5107387;28;20056;-76
2022/05/08 03:55:16;;;;;;;;;;;;;;;13.56;89.63;96703.81;5106459;28;20448;-75
2022/05/08 03:57:42;;;;;;;144.85;42.50;;;;;;;13.66;89.01;96708.91;5105457;28;20478;-75
2022/05/08 04:00:10;;;;;;;36.00;32.00;;;;;;;13.70;88.46;96715.34;5107236;28;20055;-75
2022/05/08 04:02:37;;;;;;;18.90;11.52;;;;;;;13.68;88.06;96711.34;5106382;28;20047;-75
2022/05/08 04:05:04;;;;;;;21.38;10.48;;;;;;;13.61;88.14;96711.03;5106848;28;20047;-76
2022/05/08 04:07:31;;;;;;;33.17;15.35;;;;;;;13.55;88.43;96713.16;5107084;28;20071;-75
2022/05/08 04:09:58;;;;;;;149.70;49.80;;;;;;;13.56;88.75;96714.75;5107383;28;20043;-75
2022/05/08 04:12:26;;;;;;;133.00;40.90;;;;;;;13.53;88.61;96716.22;5106645;28;20040;-75
2022/05/08 04:14:53;;;;;;;59.27;15.03;;;;;;;13.51;89.00;96715.72;5106683;28;20425;-77
2022/05/08 04:17:19;;;;;;;19.63;11.85;;;;;;;13.51;88.99;96712.19;5106936;28;20086;-75
2022/05/08 04:19:46;;;;;;;50.92;19.85;;;;;;;13.50;89.31;96721.53;5106811;28;20402;-76
2022/05/08 04:24:57;;;;;;;150.00;55.40;;;;;;;13.52;89.23;96724.75;5106602;28;20723;-75
2022/05/08 04:27:24;;;;;;;33.40;14.20;;;;;;;13.52;88.87;96724.75;5106263;28;20134;-77
2022/05/08 04:29:52;;;;;;;31.40;14.93;;;;;;;13.60;88.68;96726.66;5105452;28;20429;-75
2022/05/08 04:32:18;;;;;;;151.50;50.85;;;;;;;13.67;88.24;96726.94;5106958;28;20050;-75
2022/05/08 04:34:45;;;;;;;158.32;48.28;;;;;;;13.65;88.17;96723.72;5107248;28;20047;-76
2022/05/08 04:37:11;;;;;;;36.85;20.35;;;;;;;13.57;88.41;96727.31;5105017;28;20047;-75
2022/05/08 04:39:38;;;;;;;166.55;51.28;;;;;;;13.57;88.58;96727.31;5106871;28;20052;-75
2022/05/08 04:42:04;;;;;;;22.48;12.00;;;;;;;13.53;88.63;96731.84;5105061;28;20051;-76
2022/05/08 04:44:31;;;;;;;141.27;39.67;;;;;;;13.53;88.98;96731.84;5105765;28;20035;-75
2022/05/08 04:46:58;;;;;;;151.30;42.13;;;;;;;13.52;89.21;96731.03;5105229;28;20055;-76
2022/05/08 04:49:25;;;;;;;167.10;56.47;;;;;;;13.53;89.26;96731.84;5105897;28;20048;-75
2022/05/08 04:51:51;;;;;;;109.87;34.03;;;;;;;13.55;88.82;96733.09;5105846;28;20534;-75
2022/05/08 04:54:18;;;;;;;47.40;12.57;;;;;;;13.56;88.72;96733.91;5105365;28;20312;-76
2022/05/08 04:56:44;;;;;;;38.70;24.80;;;;;;;13.58;88.76;96737.13;5106347;28;20125;-75
2022/05/08 04:59:11;;;;;;;28.40;15.70;;;;;;;13.56;89.16;96736.66;5105356;28;20047;-76
2022/05/08 05:01:37;;;;;;;;;;;;;;;13.58;89.30;96745.34;5106558;28;20424;-75
2022/05/08 05:04:05;;;;;;;18.33;8.05;;;;;;;13.64;89.14;96744.03;5104000;28;20460;-75
2022/05/08 05:06:32;;;;;;;163.40;53.40;;;;;;;13.69;88.69;96746.59;5106343;28;20048;-76
2022/05/08 05:08:59;;;;;;;26.60;10.82;;;;;;;13.67;88.50;96751.56;5105229;28;20048;-76
2022/05/08 05:11:25;;;;;;;35.13;11.77;;;;;;;13.68;88.92;96749.66;5105774;28;20055;-77
2022/05/08 05:13:52;;;;;;;18.98;9.40;;;;;;;13.64;89.07;96754.97;5104503;28;20051;-76
2022/05/08 05:16:18;;;;;;;29.70;10.35;;;;;;;13.63;89.13;96752.56;5105566;28;20055;-75
2022/05/08 05:18:45;;;;;;;19.92;10.18;;;;;;;13.67;89.37;96754.31;5105025;28;20459;-75
2022/05/08 05:21:12;;;;;;;;;;;;;;;13.73;88.64;96758.50;5105699;28;20047;-75
2022/05/08 05:23:39;;;;;;;34.03;12.40;;;;;;;13.72;88.76;96762.34;5105238;28;20469;-75
2022/05/08 05:26:05;;;;;;;19.27;11.75;;;;;;;13.72;88.62;96759.59;5104618;28;20051;-75
2022/05/08 05:28:32;;;;;;;173.05;52.45;;;;;;;13.72;88.65;96762.34;5106266;28;20048;-76
2022/05/08 05:30:58;;;;;;;;;;;;;;;13.73;88.90;96763.97;5105352;28;20440;-76
2022/05/08 05:33:25;;;;;;;;;;;;;;;13.78;88.52;96766.53;5105766;28;20489;-76
2022/05/08 05:35:51;;;;;;;169.23;50.53;;;;;;;13.77;88.02;96775.84;5105210;28;20895;-76
2022/05/08 05:38:19;;;;;;;170.40;50.50;;;;;;;13.77;88.08;96775.84;5105241;28;20465;-75
2022/05/08 05:40:46;;;;;;;;;;;;;;;13.77;87.97;96769.56;5105879;28;20400;-75
2022/05/08 05:43:12;;;;;;;148.00;46.03;;;;;;;13.76;87.89;96779.72;5104837;28;20047;-76
2022/05/08 05:45:39;;;;;;;;;;;;;;;13.72;87.93;96777.94;5105685;28;20043;-75
2022/05/08 05:48:05;;;;;;;;;;;;;;;13.68;88.13;96777.03;5104958;28;21063;-76
2022/05/08 05:50:31;;;;;;;160.77;48.77;;;;;;;13.70;88.25;96786.50;5105819;28;19935;-75
2022/05/08 05:52:58;;;;;;;164.25;51.50;;;;;;;13.66;88.04;96785.53;5104584;28;20745;-75
2022/05/08 05:55:26;;;;;;;178.40;50.97;;;;;;;13.59;88.10;96777.03;5105473;28;20516;-74
2022/05/08 05:57:52;;;;;;;164.80;48.15;;;;;;;13.49;88.08;96780.13;5104739;28;20552;-75
2022/05/08 06:00:20;;;;;;;32.10;30.00;;;;;;;13.49;88.37;96775.47;5105182;28;20448;-75
2022/05/08 06:02:47;;;;;;;;;;;;;;;13.52;88.42;96783.03;5105098;28;20435;-76
2022/05/08 06:05:15;;;;;;;164.80;43.95;;;;;;;13.60;88.11;96778.66;5104581;28;20476;-75
2022/05/08 06:07:42;;;;;;;15.70;8.30;;;;;;;13.69;87.80;96779.44;5104760;28;20880;-75
2022/05/08 06:10:09;;;;;;;;;;;;;;;13.76;87.48;96779.72;5104889;28;20476;-75
2022/05/08 06:12:37;;;;;;;;;;;;;;;13.79;87.27;96779.06;5105177;28;20484;-76
2022/05/08 06:15:06;;;;;;;;;;;;;;;13.83;87.35;96774.56;5104158;28;20453;-75
2022/05/08 06:17:32;;;;;;;;;;;;;;;13.90;87.51;96784.19;5105354;28;20395;-75
2022/05/08 06:19:58;;;;;;;;;;;;;;;13.96;87.54;96786.41;5104528;28;20780;-74
2022/05/08 06:22:25;;;;;;;146.87;47.00;;;;;;;14.03;87.14;96789.41;5105679;28;19946;-75
2022/05/08 06:24:51;;;;;;;;;;;;;;;14.01;87.07;96790.88;5106240;28;20043;-75
2022/05/08 06:27:18;;;;;;;;;;;;;;;14.06;87.20;96793.44;5108907;28;20780;-78
2022/05/08 06:29:45;;;;;;;;;;;;;;;14.09;87.25;96788.13;5108941;28;20439;-74
2022/05/08 06:32:12;;;;;;;;;;;;;;;14.15;86.84;96783.25;5108808;28;20408;-77
2022/05/08 06:34:38;;;;;;;;;;;;;;;14.19;86.41;96795.13;5109613;28;19923;-76
2022/05/08 06:37:05;;;;;;;;;;;;;;;14.23;85.89;96784.31;5108452;28;19923;-75
2022/05/08 06:39:33;;;;;;;;;;;;;;;14.22;85.64;96791.75;5109276;28;20448;-77
2022/05/08 06:42:00;;;;;;;117.10;49.90;;;;;;;14.20;85.37;96784.97;5108451;28;20356;-74
2022/05/08 06:44:26;;;;;;;;;;;;;;;14.18;85.30;96779.03;5108393;28;20396;-76
2022/05/08 06:46:54;;;;;;;140.90;47.10;;;;;;;14.24;85.02;96791.41;5108222;28;20795;-75
2022/05/08 06:49:20;;;;;;;;;;;;;;;14.24;84.92;96785.94;5108687;28;20044;-75
2022/05/08 06:51:47;;;;;;;;;;;;;;;14.17;84.76;96791.94;5108941;28;19934;-76
2022/05/08 06:54:13;;;;;;;;;;;;;;;14.17;84.65;96800.16;5108512;28;19958;-78
2022/05/08 06:56:41;;;;;;;;;;;;;;;14.16;84.63;96801.28;5108798;28;20289;-76
2022/05/08 07:01:51;;;;;;;;;;;;;;;14.16;84.67;96803.22;5109304;28;19934;-75
2022/05/08 07:04:19;;;;;;;;;;;;;;;14.19;84.97;96802.56;5107576;28;20362;-76
2022/05/08 07:06:45;;;;;;;;;;;;;;;14.13;84.49;96803.88;5108891;28;20449;-76
2022/05/08 07:09:13;;;;;;;;;;;;;;;14.19;84.99;96803.34;5107555;28;20378;-75
2022/05/08 07:11:41;;;;;;;;;;;;;;;14.26;84.97;96803.66;5108711;28;19966;-75
2022/05/08 07:14:07;;;;;;;;;;;;;;;14.30;85.13;96804.59;5107277;28;19924;-76
2022/05/08 07:16:34;;;;;;;;;;;;;;;14.36;85.00;96803.28;5108323;28;20782;-77
2022/05/08 07:19:00;;;;;;;;;;;;;;;14.33;84.37;96814.09;5108432;28;20986;-75
2022/05/08 07:21:28;;;;;;;;;;;;;;;14.25;83.53;96818.50;5108474;28;19928;-75
2022/05/08 07:23:55;;;;;;;155.93;48.05;;;;;;;14.31;83.89;96811.69;5108424;28;19935;-74
2022/05/08 07:26:22;;;;;;;109.70;44.10;;;;;;;14.31;83.57;96816.38;5106742;28;20062;-76
2022/05/08 07:28:48;;;;;;;19.85;10.23;;;;;;;14.26;83.71;96813.81;5108416;28;20048;-78
2022/05/08 07:31:15;;;;;;;18.25;8.15;;;;;;;14.23;84.02;96815.25;5106867;28;20040;-74
2022/05/08 07:33:41;;;;;;;;;;;;;;;14.23;84.13;96820.75;5108559;28;20059;-77
2022/05/08 07:36:13;;;;;;;;;;;;;;;14.26;84.15;96820.09;5106304;28;20450;-75
2022/05/08 07:38:42;;;;;;;;;;;;;;;14.36;83.94;96816.97;5108112;28;20361;-75
2022/05/08 07:41:09;;;;;;;140.60;48.80;;;;;;;14.31;82.33;96817.16;5107230;28;20412;-75
2022/05/08 07:43:37;;;;;;;174.32;51.83;;;;;;;14.25;82.40;96818.50;5106905;28;20518;-76
2022/05/08 07:46:03;;;;;;;;;;;;;;;14.24;82.69;96822.34;5107399;28;20493;-76
2022/05/08 07:48:30;;;;;;;;;;;;;;;14.25;82.57;96823.97;5108181;28;19927;-75
2022/05/08 07:50:59;;;;;;;;;;;;;;;14.28;82.30;96827.97;5108341;28;19931;-76
2022/05/08 07:53:26;;;;;;;;;;;;;;;14.38;82.99;96821.31;5106911;28;20000;-75
2022/05/08 07:55:53;;;;;;;;;;;;;;;14.45;83.03;96821.59;5108352;28;19928;-74
2022/05/08 07:58:20;;;;;;;;;;;;;;;14.54;82.92;96816.88;5106494;28;20453;-77
2022/05/08 08:00:46;;;;;;;;;;;;;;;14.59;82.10;96824.91;5108075;28;19930;-76
2022/05/08 08:03:13;;;;;;;;;;;;;;;14.57;81.10;96829.94;5107234;28;20022;-77
2022/05/08 08:05:39;;;;;;;;;;;;;;;14.58;80.83;96829.59;5107656;28;19934;-75
2022/05/08 08:08:06;;;;;;;;;;;;;;;14.69;80.79;96835.50;5106793;28;20445;-74
2022/05/08 08:10:33;;;;;;;;;;;;;;;14.71;80.61;96840.63;5106405;28;20426;-76
2022/05/08 08:13:00;;;;;;;;;;;;;;;14.79;80.25;96837.06;5107594;28;19934;-76
2022/05/08 08:15:27;;;;;;;;;;;;;;;14.78;79.28;96841.72;5106423;28;19923;-77
2022/05/08 08:17:53;;;;;;;;;;;;;;;14.81;79.30;96845.72;5107466;28;19966;-76
2022/05/08 08:20:19;;;;;;;;;;;;;;;14.84;79.19;96840.41;5105988;28;20457;-76
2022/05/08 08:22:46;;;;;;;;;;;;;;;14.86;79.17;96843.59;5107692;28;19935;-77
2022/05/08 08:25:12;;;;;;;150.55;48.20;;;;;;;14.91;78.70;96847.28;5106011;28;20408;-76
2022/05/08 08:27:39;;;;;;;;;;;;;;;14.83;77.95;96844.28;5106085;28;20404;-76
2022/05/08 08:30:08;;;;;;;;;;;;;;;14.83;78.25;96844.28;5106379;28;20915;-76
2022/05/08 08:32:34;;;;;;;;;;;;;;;14.77;78.29;96851.09;5106770;28;20452;-77
2022/05/08 08:35:00;;;;;;;;;;;;;;;14.82;78.50;96850.88;5107075;28;20433;-76
2022/05/08 08:37:27;;;;;;;;;;;;;;;14.88;79.04;96855.03;5105822;28;20293;-76
2022/05/08 08:39:53;;;;;;;135.30;46.60;;;;;;;14.85;79.22;96852.97;5107267;28;20293;-76
2022/05/08 08:42:22;;;;;;;;;;;;;;;14.88;79.42;96854.25;5105516;28;20044;-76
2022/05/08 08:47:46;;;;;;;;;;;;;;;15.02;79.73;96851.22;5106000;28;19945;-76
2022/05/08 08:50:13;;;;;;;;;;;;;;;15.19;80.02;96851.09;5106050;28;19924;-76
2022/05/08 08:52:39;;;;;;;;;;;;;;;15.26;80.11;96856.84;5106932;28;19928;-76
2022/05/08 08:55:06;;;;;;;;;;;;;;;15.42;79.83;96848.78;5105631;28;20560;-76
2022/05/08 08:57:33;;;;;;;;;;;;;;;15.56;79.61;96856.75;5106419;28;19984;-76
2022/05/08 08:59:59;;;;;;;;;;;;;;;15.64;79.15;96855.88;5106092;28;20375;-78
2022/05/08 09:02:25;;;;;;;;;;;;;;;15.75;78.77;96862.53;5106224;28;20405;-77
2022/05/08 09:04:54;;;;;;;118.10;50.90;;;;;;;15.74;77.89;96849.97;5105982;28;20313;-75
2022/05/08 09:07:38;;;;;;;;;;;;;;;15.80;76.88;96858.78;5105409;28;20531;-76
2022/05/08 09:10:11;;;;;;;;;;;;;;;15.86;76.62;96860.97;5106062;28;19967;-76
2022/05/08 09:12:38;;;;;;;;;;;;;;;15.94;76.63;96853.00;5105626;28;19958;-76
2022/05/08 09:15:23;;;;;;;;;;;;;;;16.00;75.65;96855.16;5106175;28;19927;-77
2022/05/08 09:17:52;;;;;;;;;;;;;;;16.00;75.15;96857.13;5106022;28;20263;-75
2022/05/08 09:20:30;;;;;;;;;;;;;;;15.99;73.89;96855.50;5106256;28;20433;-75
2022/05/08 09:23:04;;;;;;;;;;;;;;;15.98;72.82;96862.97;5106027;28;19928;-75
2022/05/08 09:25:45;;;;;;;;;;;;;;;16.09;73.12;96861.38;5105039;28;20527;-75
2022/05/08 09:28:11;;;;;;;;;;;;;;;16.06;71.04;96861.25;5103424;28;19928;-76
2022/05/08 09:30:52;;;;;;;;;;;;;;;16.06;71.21;96858.50;5105744;28;20474;-77
2022/05/08 09:33:22;;;;;;;;;;;;;;;16.09;71.27;96866.88;5106277;28;20004;-75
2022/05/08 09:35:50;;;;;;;;;;;;;;;16.16;71.97;96866.28;5105456;28;19939;-76
2022/05/08 09:38:17;;;;;;;;;;;;;;;16.08;71.32;96865.25;5105224;28;19927;-76
2022/05/08 09:40:45;;;;;;;;;;;;;;;16.02;70.22;96866.59;5105596;28;20407;-76
2022/05/08 09:43:26;;;;;;;;;;;;;;;15.90;70.95;96861.91;5104543;28;20425;-76
2022/05/08 09:45:57;;;;;;;25.75;11.25;;;;;;;15.76;70.51;96868.84;5104142;28;20453;-76
2022/05/08 09:48:25;;;;;;;43.00;29.23;;;;;;;15.74;71.37;96860.94;5104370;28;20044;-76
2022/05/08 09:50:56;;;;;;;14.63;10.05;;;;;;;15.64;72.14;96864.91;5105676;28;20050;-76
2022/05/08 09:53:24;;;;;;;17.58;13.13;;;;;;;15.51;72.66;96859.69;5104717;28;20044;-76
2022/05/08 09:55:52;;;;;;;11.73;10.48;;;;;;;15.49;73.65;96868.25;5105750;28;20131;-76
2022/05/08 09:58:19;;;;;;;15.35;9.85;;;;;;;15.46;73.82;96865.41;5104063;28;20608;-77
2022/05/08 10:00:46;;;;;;;11.43;10.23;;;;;;;15.50;74.08;96864.38;5107976;28;20051;-75
2022/05/08 10:03:14;;;;;;;14.30;10.45;;;;;;;15.57;74.23;96866.59;5108762;28;20047;-75
2022/05/08 10:05:42;;;;;;;11.20;9.93;;;;;;;15.50;73.14;96860.81;5108899;28;20086;-76
2022/05/08 10:08:13;;;;;;;12.63;9.77;;;;;;;15.51;73.38;96857.75;5108676;28;20094;-76
2022/05/08 10:13:56;;;;;;;11.73;9.65;;;;;;;15.61;73.64;96859.28;5108871;28;20059;-76
2022/05/08 10:16:49;;;;;;;11.38;9.15;;;;;;;15.73;73.40;96864.03;5108103;28;20079;-76
2022/05/08 10:19:47;;;;;;;10.35;8.30;;;;;;;15.84;72.82;96867.94;5108110;28;20045;-75
2022/05/08 10:22:14;;;;;;;10.30;8.23;;;;;;;15.93;73.10;96865.13;5108836;28;20680;-76
2022/05/08 10:24:46;;;;;;;15.60;11.40;;;;;;;15.90;70.68;96864.63;5108328;28;20043;-77
2022/05/08 10:27:15;;;;;;;13.43;9.90;;;;;;;16.00;71.07;96868.09;5108139;28;20559;-75
2022/05/08 10:29:42;;;;;;;10.15;8.57;;;;;;;16.13;71.62;96869.72;5108622;28;20053;-75
2022/05/08 10:32:10;;;;;;;10.35;8.82;;;;;;;16.19;70.70;96868.38;5108418;28;20079;-75
2022/05/08 10:34:39;;;;;;;10.52;8.70;;;;;;;16.29;71.66;96861.63;5108585;28;20120;-75
2022/05/08 10:37:28;;;;;;;11.60;8.20;;;;;;;16.46;71.68;96858.66;5107295;28;20047;-78
2022/05/08 10:39:57;;;;;;;10.25;8.73;;;;;;;16.61;71.87;96854.41;5108894;28;20063;-78
2022/05/08 10:42:42;;;;;;;10.80;9.00;;;;;;;16.83;71.29;96853.16;5107237;28;20062;-75
2022/05/08 10:45:40;;;;;;;9.68;8.55;;;;;;;16.93;70.00;96850.72;5108460;28;20063;-76
2022/05/08 10:48:14;;;;;;;13.82;9.70;;;;;;;16.95;70.18;96851.16;5107735;28;20063;-76
2022/05/08 10:50:43;;;;;;;12.05;9.55;;;;;;;16.90;68.80;96861.59;5107908;28;20051;-75
2022/05/08 10:53:25;;;;;;;10.23;9.23;;;;;;;16.82;69.12;96866.09;5108259;28;20058;-76
2022/05/08 10:55:59;;;;;;;10.70;9.57;;;;;;;16.74;68.82;96860.72;5107794;28;20039;-76
2022/05/08 10:58:25;;;;;;;10.73;9.63;;;;;;;16.62;69.46;96859.56;5107558;28;20123;-76
2022/05/08 11:00:56;;;;;;;13.23;9.60;;;;;;;16.57;70.02;96859.78;5107915;28;20838;-76
2022/05/08 11:03:25;;;;;;;13.13;9.95;;;;;;;16.48;70.36;96861.84;5107810;28;20048;-76
2022/05/08 11:05:52;;;;;;;11.85;9.27;;;;;;;16.41;70.13;96865.19;5108026;28;20566;-75
2022/05/08 11:08:24;;;;;;;12.13;10.40;;;;;;;16.36;71.48;96868.16;5106807;28;20077;-75
2022/05/08 11:11:03;;;;;;;10.90;9.80;;;;;;;16.41;71.35;96859.69;5107477;28;20050;-76
2022/05/08 11:13:41;;;;;;;10.88;8.75;;;;;;;16.41;70.41;96862.44;5106658;28;20048;-75
2022/05/08 11:16:08;;;;;;;13.77;9.40;;;;;;;16.50;70.26;96859.56;5107547;28;20103;-75
2022/05/08 11:18:35;;;;;;;11.07;8.70;;;;;;;16.61;70.85;96855.22;5107125;28;20062;-76
2022/05/08 11:21:03;;;;;;;12.55;8.75;;;;;;;16.61;68.83;96854.41;5107552;28;20050;-76
2022/05/08 11:23:31;;;;;;;10.23;8.80;;;;;;;16.63;69.34;96852.09;5107779;28;20556;-76
2022/05/08 11:26:00;;;;;;;12.00;9.60;;;;;;;16.58;68.71;96857.84;5107457;28;20453;-77
2022/05/08 11:28:28;;;;;;;11.45;9.05;;;;;;;16.52;69.04;96856.47;5106896;28;20048;-77
2022/05/08 11:30:56;;;;;;;11.65;8.82;;;;;;;16.48;68.68;96855.53;5107244;28;20047;-76
2022/05/08 11:36:23;;;;;;;11.68;9.00;;;;;;;16.48;70.44;96858.28;5106733;28;20217;-75
2022/05/08 11:38:52;;;;;;;13.55;9.35;;;;;;;16.52;69.88;96853.72;5107342;28;20055;-75
2022/05/08 11:41:22;;;;;;;11.68;9.07;;;;;;;16.57;70.33;96859.00;5106904;28;20524;-77
2022/05/08 11:43:50;;;;;;;11.23;8.43;;;;;;;16.63;69.48;96852.09;5107264;28;20052;-76
2022/05/08 11:46:17;;;;;;;9.30;8.23;;;;;;;16.73;70.43;96850.88;5106844;28;20048;-75
2022/05/08 11:48:46;;;;;;;11.27;7.82;;;;;;;16.83;68.96;96850.41;5106596;28;20526;-75
2022/05/08 11:51:14;;;;;;;10.40;7.53;;;;;;;17.02;69.11;96847.03;5106970;28;20149;-76
2022/05/08 11:53:42;;;;;;;8.68;7.63;;;;;;;17.10;68.33;96851.59;5106655;28;20055;-75
2022/05/08 11:56:27;;;;;;;13.02;7.82;;;;;;;17.11;66.96;96847.69;5106671;28;20727;-77
2022/05/08 11:58:55;;;;;;;8.05;6.65;;;;;;;17.14;66.86;96850.56;5106833;28;20396;-76
2022/05/08 12:01:26;;;;;;;8.82;7.03;;;;;;;17.21;66.01;96844.47;5106772;28;20124;-75
2022/05/08 12:03:53;;;;;;;9.75;6.70;;;;;;;17.26;65.24;96849.72;5107441;28;20052;-75
2022/05/08 12:06:19;;;;;;;7.85;6.63;;;;;;;17.38;66.50;96846.09;5106062;28;20055;-76
2022/05/08 12:08:46;;;;;;;7.28;6.32;;;;;;;17.51;66.38;96844.13;5107288;28;20051;-75